createdAt,value
2023-02-02T00:01:22.178Z,101051.50
2023-02-02T00:03:50.684Z,101055.56
2023-02-02T00:06:22.110Z,101065.84
2023-02-02T00:08:49.141Z,101065.00
2023-02-02T00:11:18.816Z,101064.31
2023-02-02T00:13:45.599Z,101058.56
2023-02-02T00:16:27.390Z,101058.16
2023-02-02T00:18:56.231Z,101067.28
2023-02-02T00:21:23.178Z,101046.22
2023-02-02T00:23:50.031Z,101048.75
2023-02-02T00:26:17.224Z,101049.19
2023-02-02T00:28:44.144Z,101047.81
2023-02-02T00:31:10.714Z,101057.38
2023-02-02T00:33:37.400Z,101062.22
2023-02-02T00:36:04.844Z,101048.94
2023-02-02T00:38:32.215Z,101050.41
2023-02-02T00:40:58.695Z,101049.97
2023-02-02T00:43:25.231Z,101042.53
2023-02-02T00:45:52.798Z,101064.06
2023-02-02T00:48:19.305Z,101046.19
2023-02-02T00:50:45.805Z,101049.56
2023-02-02T00:53:12.392Z,101039.75
2023-02-02T00:55:39.955Z,101039.13
2023-02-02T00:58:07.831Z,101046.31
2023-02-02T01:00:59.394Z,101047.19
2023-02-02T01:03:26.850Z,101042.94
2023-02-02T01:05:53.326Z,101039.09
2023-02-02T01:08:19.883Z,101033.78
2023-02-02T01:10:46.362Z,101034.38
2023-02-02T01:13:13.371Z,101034.22
2023-02-02T01:15:39.956Z,101035.47
2023-02-02T01:18:06.536Z,101035.88
2023-02-02T01:20:33.059Z,101043.38
2023-02-02T01:22:59.627Z,101034.19
2023-02-02T01:25:27.369Z,101036.97
2023-02-02T01:27:54.917Z,101038.69
2023-02-02T01:30:21.524Z,101045.13
2023-02-02T01:32:48.392Z,101046.63
2023-02-02T01:35:14.920Z,101049.59
2023-02-02T01:37:41.539Z,101043.63
2023-02-02T01:40:09.052Z,101044.28
2023-02-02T01:42:35.732Z,101052.81
2023-02-02T01:45:24.287Z,101064.56
2023-02-02T01:47:54.702Z,101054.34
2023-02-02T01:50:25.414Z,101062.41
2023-02-02T01:52:55.503Z,101063.25
2023-02-02T01:55:25.208Z,101067.97
2023-02-02T01:58:00.718Z,101072.41
2023-02-02T02:00:27.777Z,101071.53
2023-02-02T02:02:58.132Z,101079.28
2023-02-02T02:05:29.530Z,101077.53
2023-02-02T02:08:03.826Z,101084.81
2023-02-02T02:10:30.562Z,101079.47
2023-02-02T02:12:58.288Z,101080.78
2023-02-02T02:15:43.924Z,101069.00
2023-02-02T02:18:34.688Z,101065.84
2023-02-02T02:21:29.584Z,101057.31
2023-02-02T02:24:36.919Z,101051.13
2023-02-02T02:27:43.581Z,101059.22
2023-02-02T02:30:19.286Z,101067.28
2023-02-02T02:33:00.896Z,101057.28
2023-02-02T02:35:40.184Z,101069.88
2023-02-02T02:38:29.997Z,101065.00
2023-02-02T02:41:01.419Z,101054.34
2023-02-02T02:43:37.684Z,101060.72
2023-02-02T02:46:05.421Z,101064.94
2023-02-02T02:48:32.039Z,101071.97
2023-02-02T02:51:36.185Z,101063.88
2023-02-02T02:54:03.780Z,101067.53
2023-02-02T02:56:39.228Z,101069.44
2023-02-02T02:59:15.706Z,101072.59
2023-02-02T03:01:56.349Z,101064.09
2023-02-02T03:04:43.316Z,101069.22
2023-02-02T03:07:21.802Z,101062.41
2023-02-02T03:09:50.195Z,101071.31
2023-02-02T03:12:17.555Z,101066.66
2023-02-02T03:14:44.210Z,101073.47
2023-02-02T03:17:10.938Z,101069.44
2023-02-02T03:19:37.516Z,101067.72
2023-02-02T03:22:04.023Z,101063.47
2023-02-02T03:24:30.589Z,101064.94
2023-02-02T03:26:57.373Z,101062.41
2023-02-02T03:29:25.530Z,101064.97
2023-02-02T03:31:52.229Z,101064.34
2023-02-02T03:34:18.833Z,101057.09
2023-02-02T03:36:45.350Z,101062.41
2023-02-02T03:39:11.985Z,101064.91
2023-02-02T03:41:38.503Z,101067.53
2023-02-02T03:44:05.245Z,101064.50
2023-02-02T03:46:31.760Z,101066.66
2023-02-02T03:48:58.307Z,101067.09
2023-02-02T03:51:24.892Z,101063.50
2023-02-02T03:53:51.428Z,101065.84
2023-02-02T03:56:19.408Z,101072.00
2023-02-02T03:58:47.118Z,101072.84
2023-02-02T04:01:14.857Z,101072.22
2023-02-02T04:03:42.037Z,101069.66
2023-02-02T04:06:08.777Z,101067.72
2023-02-02T04:08:35.556Z,101070.94
2023-02-02T04:11:02.374Z,101066.25
2023-02-02T04:13:29.152Z,101076.88
2023-02-02T04:16:00.450Z,101067.31
2023-02-02T04:18:27.504Z,101076.03
2023-02-02T04:21:01.462Z,101070.91
2023-02-02T04:23:29.011Z,101081.16
2023-02-02T04:25:55.840Z,101072.22
2023-02-02T04:28:23.776Z,101076.50
2023-02-02T04:30:51.431Z,101070.06
2023-02-02T04:33:18.040Z,101086.06
2023-02-02T04:35:44.576Z,101079.47
2023-02-02T04:38:11.590Z,101078.63
2023-02-02T04:40:41.207Z,101069.66
2023-02-02T04:43:07.799Z,101071.38
2023-02-02T04:45:34.340Z,101072.66
2023-02-02T04:48:01.203Z,101079.47
2023-02-02T04:50:27.936Z,101063.47
2023-02-02T04:52:54.472Z,101074.34
2023-02-02T04:55:20.991Z,101073.50
2023-02-02T04:57:47.645Z,101068.19
2023-02-02T05:00:14.924Z,101064.34
2023-02-02T05:02:42.303Z,101068.38
2023-02-02T05:05:12.478Z,101068.81
2023-02-02T05:07:40.217Z,101077.34
2023-02-02T05:10:07.749Z,101077.13
2023-02-02T05:12:34.285Z,101061.97
2023-02-02T05:15:02.012Z,101061.56
2023-02-02T05:17:28.828Z,101072.22
2023-02-02T05:19:55.317Z,101064.50
2023-02-02T05:22:21.936Z,101067.69
2023-02-02T05:24:48.484Z,101073.69
2023-02-02T05:27:14.988Z,101079.84
2023-02-02T05:29:41.478Z,101074.09
2023-02-02T05:32:08.067Z,101068.78
2023-02-02T05:34:34.718Z,101074.72
2023-02-02T05:37:01.435Z,101073.91
2023-02-02T05:39:28.010Z,101067.50
2023-02-02T05:41:54.640Z,101075.59
2023-02-02T05:44:21.170Z,101072.13
2023-02-02T05:46:47.735Z,101076.41
2023-02-02T05:49:14.707Z,101074.50
2023-02-02T05:51:45.556Z,101070.84
2023-02-02T05:54:12.268Z,101080.25
2023-02-02T05:56:39.129Z,101082.16
2023-02-02T05:59:07.373Z,101072.63
2023-02-02T06:01:34.541Z,101078.78
2023-02-02T06:04:01.242Z,101081.53
2023-02-02T06:06:27.849Z,101083.19
2023-02-02T06:08:54.465Z,101079.00
2023-02-02T06:11:20.959Z,101085.38
2023-02-02T06:13:47.583Z,101084.09
2023-02-02T06:16:14.647Z,101096.25
2023-02-02T06:18:41.364Z,101090.28
2023-02-02T06:21:08.125Z,101090.06
2023-02-02T06:23:35.043Z,101080.66
2023-02-02T06:26:03.400Z,101093.00
2023-02-02T06:28:31.651Z,101090.88
2023-02-02T06:31:04.570Z,101092.56
2023-02-02T06:33:31.371Z,101097.72
2023-02-02T06:36:01.998Z,101104.78
2023-02-02T06:38:28.788Z,101108.84
2023-02-02T06:40:55.896Z,101106.50
2023-02-02T06:43:22.538Z,101113.09
2023-02-02T06:45:49.056Z,101116.97
2023-02-02T06:48:15.751Z,101117.16
2023-02-02T06:50:42.251Z,101121.22
2023-02-02T06:53:08.924Z,101116.47
2023-02-02T06:55:35.448Z,101124.63
2023-02-02T06:58:02.098Z,101125.06
2023-02-02T07:00:29.970Z,101120.38
2023-02-02T07:02:57.200Z,101118.66
2023-02-02T07:05:24.232Z,101115.66
2023-02-02T07:07:51.262Z,101121.19
2023-02-02T07:11:09.491Z,101118.66
2023-02-02T07:13:06.886Z,101131.41
2023-02-02T07:15:34.462Z,101125.47
2023-02-02T07:18:01.231Z,101135.69
2023-02-02T07:20:27.815Z,101134.78
2023-02-02T07:22:54.403Z,101135.44
2023-02-02T07:25:21.506Z,101135.41
2023-02-02T07:27:52.036Z,101145.66
2023-02-02T07:30:19.062Z,101143.50
2023-02-02T07:32:49.328Z,101145.84
2023-02-02T07:35:17.275Z,101145.84
2023-02-02T07:37:43.818Z,101152.91
2023-02-02T07:40:11.295Z,101147.19
2023-02-02T07:42:37.880Z,101154.19
2023-02-02T07:45:24.503Z,101157.63
2023-02-02T07:47:57.159Z,101155.91
2023-02-02T07:50:25.232Z,101151.25
2023-02-02T07:52:52.459Z,101165.13
2023-02-02T07:55:19.990Z,101167.03
2023-02-02T07:57:46.704Z,101163.00
2023-02-02T08:00:13.844Z,101160.03
2023-02-02T08:02:40.454Z,101164.13
2023-02-02T08:05:07.438Z,101169.84
2023-02-02T08:07:35.000Z,101175.81
2023-02-02T08:10:01.585Z,101170.50
2023-02-02T08:12:28.201Z,101174.72
2023-02-02T08:14:54.821Z,101180.94
2023-02-02T08:17:22.915Z,101180.94
2023-02-02T08:19:49.546Z,101177.09
2023-02-02T08:22:16.093Z,101191.19
2023-02-02T08:24:42.936Z,101183.94
2023-02-02T08:27:10.352Z,101193.75
2023-02-02T08:29:38.385Z,101198.44
2023-02-02T08:32:05.336Z,101198.00
2023-02-02T08:34:34.756Z,101200.34
2023-02-02T08:37:01.243Z,101195.22
2023-02-02T08:39:27.891Z,101194.38
2023-02-02T08:41:56.430Z,101198.44
2023-02-02T08:44:23.664Z,101205.91
2023-02-02T08:46:52.942Z,101209.31
2023-02-02T08:49:19.529Z,101198.66
2023-02-02T08:51:46.151Z,101210.38
2023-02-02T08:54:12.825Z,101213.34
2023-02-02T08:56:39.415Z,101218.47
2023-02-02T08:59:05.939Z,101215.28
2023-02-02T09:01:34.168Z,101222.94
2023-02-02T09:04:04.452Z,101225.69
2023-02-02T09:06:35.731Z,101225.06
2023-02-02T09:09:04.365Z,101230.41
2023-02-02T09:11:31.121Z,101241.31
2023-02-02T09:13:59.295Z,101237.25
2023-02-02T09:16:27.111Z,101242.59
2023-02-02T09:18:55.008Z,101245.56
2023-02-02T09:21:21.931Z,101248.34
2023-02-02T09:23:49.973Z,101252.19
2023-02-02T09:26:19.580Z,101264.97
2023-02-02T09:28:49.117Z,101262.88
2023-02-02T09:31:16.345Z,101270.75
2023-02-02T09:33:43.592Z,101271.38
2023-02-02T09:36:14.358Z,101263.50
2023-02-02T09:38:41.793Z,101280.34
2023-02-02T09:41:20.438Z,101279.69
2023-02-02T09:43:56.237Z,101288.44
2023-02-02T09:46:50.389Z,101278.00
2023-02-02T09:49:25.822Z,101294.22
2023-02-02T09:51:58.764Z,101298.28
2023-02-02T09:54:40.683Z,101302.31
2023-02-02T09:57:19.260Z,101310.00
2023-02-02T09:59:49.043Z,101312.75
2023-02-02T10:02:22.292Z,101316.16
2023-02-02T10:04:52.823Z,101321.09
2023-02-02T10:07:32.941Z,101319.38
2023-02-02T10:10:05.173Z,101325.97
2023-02-02T10:12:35.781Z,101326.81
2023-02-02T10:15:17.649Z,101330.50
2023-02-02T10:17:50.904Z,101337.50
2023-02-02T10:20:45.024Z,101334.75
2023-02-02T10:23:15.465Z,101337.28
2023-02-02T10:25:52.325Z,101342.84
2023-02-02T10:28:20.369Z,101337.09
2023-02-02T10:30:55.422Z,101343.28
2023-02-02T10:33:37.825Z,101338.16
2023-02-02T10:36:45.775Z,101343.09
2023-02-02T10:39:36.085Z,101351.81
2023-02-02T10:42:36.846Z,101356.94
2023-02-02T10:45:14.088Z,101355.25
2023-02-02T10:47:40.637Z,101348.66
2023-02-02T10:50:12.967Z,101347.56
2023-02-02T10:53:12.967Z,101353.34
2023-02-02T10:55:58.300Z,101360.16
2023-02-02T10:58:35.671Z,101360.59
2023-02-02T11:01:04.627Z,101371.06
2023-02-02T11:03:32.609Z,101360.59
2023-02-02T11:06:21.460Z,101358.06
2023-02-02T11:08:59.347Z,101360.00
2023-02-02T11:11:39.087Z,101367.41
2023-02-02T11:14:08.521Z,101360.41
2023-02-02T11:16:43.703Z,101373.63
2023-02-02T11:19:16.780Z,101371.06
2023-02-02T11:21:56.289Z,101364.47
2023-02-02T11:24:45.490Z,101371.69
2023-02-02T11:27:20.755Z,101366.59
2023-02-02T11:29:55.430Z,101365.31
2023-02-02T11:32:24.944Z,101370.91
2023-02-02T11:35:16.067Z,101371.50
2023-02-02T11:37:55.438Z,101370.19
2023-02-02T11:40:42.002Z,101357.88
2023-02-02T11:43:23.954Z,101360.22
2023-02-02T11:45:59.705Z,101366.38
2023-02-02T11:48:32.086Z,101357.41
2023-02-02T11:51:01.180Z,101367.00
2023-02-02T11:53:34.321Z,101364.00
2023-02-02T11:56:08.098Z,101359.31
2023-02-02T11:58:44.296Z,101361.91
2023-02-02T12:01:25.363Z,101362.75
2023-02-02T12:03:55.012Z,101358.91
2023-02-02T12:06:24.460Z,101357.22
2023-02-02T12:09:01.197Z,101366.16
2023-02-02T12:11:48.354Z,101364.22
2023-02-02T12:14:37.812Z,101370.44
2023-02-02T12:17:12.994Z,101363.81
2023-02-02T12:20:00.935Z,101368.94
2023-02-02T12:23:01.643Z,101369.81
2023-02-02T12:25:59.182Z,101365.34
2023-02-02T12:28:45.878Z,101372.41
2023-02-02T12:31:26.626Z,101376.66
2023-02-02T12:34:30.990Z,101370.25
2023-02-02T12:37:23.145Z,101371.94
2023-02-02T12:40:35.412Z,101368.31
2023-02-02T12:43:37.428Z,101359.75
2023-02-02T12:46:19.484Z,101362.31
2023-02-02T12:49:13.987Z,101380.03
2023-02-02T12:51:50.470Z,101371.94
2023-02-02T12:54:47.256Z,101371.31
2023-02-02T12:57:34.569Z,101372.84
2023-02-02T13:00:42.238Z,101363.19
2023-02-02T13:03:20.684Z,101355.94
2023-02-02T13:05:59.282Z,101353.81
2023-02-02T13:08:33.316Z,101357.00
2023-02-02T13:11:45.228Z,101353.34
2023-02-02T13:14:17.309Z,101358.47
2023-02-02T13:16:48.864Z,101357.59
2023-02-02T13:19:28.850Z,101355.03
2023-02-02T13:21:58.191Z,101359.19
2023-02-02T13:24:31.034Z,101369.84
2023-02-02T13:27:02.261Z,101366.81
2023-02-02T13:30:13.723Z,101378.63
2023-02-02T13:32:44.775Z,101382.91
2023-02-02T13:35:17.455Z,101383.09
2023-02-02T13:37:50.067Z,101376.72
2023-02-02T13:40:35.658Z,101381.63
2023-02-02T13:43:11.550Z,101396.56
2023-02-02T13:46:00.605Z,101395.88
2023-02-02T13:48:39.962Z,101391.63
2023-02-02T13:51:19.565Z,101391.72
2023-02-02T13:54:19.975Z,101396.44
2023-02-02T13:57:06.443Z,101399.88
2023-02-02T14:00:10.367Z,101389.38
2023-02-02T14:02:43.713Z,101393.88
2023-02-02T14:05:26.853Z,101380.22
2023-02-02T14:08:00.364Z,101391.72
2023-02-02T14:10:31.924Z,101390.22
2023-02-02T14:13:28.356Z,101388.72
2023-02-02T14:15:56.968Z,101394.53
2023-02-02T14:18:48.658Z,101393.41
2023-02-02T14:21:33.513Z,101398.09
2023-02-02T14:24:04.945Z,101390.03
2023-02-02T14:26:44.585Z,101399.63
2023-02-02T14:29:31.302Z,101407.94
2023-02-02T14:32:30.541Z,101407.94
2023-02-02T14:35:09.982Z,101409.63
2023-02-02T14:38:04.086Z,101407.09
2023-02-02T14:40:47.223Z,101407.72
2023-02-02T14:43:39.650Z,101417.13
2023-02-02T14:46:15.518Z,101418.00
2023-02-02T14:48:47.041Z,101416.47
2023-02-02T14:51:18.148Z,101422.03
2023-02-02T14:54:34.497Z,101422.41
2023-02-02T14:57:06.429Z,101433.53
2023-02-02T14:59:37.351Z,101424.22
2023-02-02T15:02:22.375Z,101435.72
2023-02-02T15:04:49.349Z,101444.47
2023-02-02T15:07:25.071Z,101440.44
2023-02-02T15:09:56.312Z,101447.00
2023-02-02T15:12:31.328Z,101451.34
2023-02-02T15:15:01.181Z,101457.63
2023-02-02T15:17:39.837Z,101443.75
2023-02-02T15:20:28.278Z,101453.19
2023-02-02T15:23:04.189Z,101438.13
2023-02-02T15:25:57.744Z,101447.13
2023-02-02T15:28:36.415Z,101442.41
2023-02-02T15:31:17.205Z,101449.91
2023-02-02T15:33:50.916Z,101446.50
2023-02-02T15:36:21.873Z,101444.56
2023-02-02T15:38:51.929Z,101450.50
2023-02-02T15:41:24.662Z,101446.34
2023-02-02T15:43:52.242Z,101453.50
2023-02-02T15:46:35.680Z,101458.72
2023-02-02T15:49:33.699Z,101455.28
2023-02-02T15:52:13.513Z,101468.47
2023-02-02T15:54:50.901Z,101467.53
2023-02-02T15:57:34.199Z,101475.22
2023-02-02T16:00:22.195Z,101472.13
2023-02-02T16:02:52.372Z,101476.72
2023-02-02T16:05:25.324Z,101468.75
2023-02-02T16:08:03.642Z,101477.81
2023-02-02T16:10:32.155Z,101481.78
2023-02-02T16:12:58.797Z,101482.16
2023-02-02T16:15:28.254Z,101476.31
2023-02-02T16:18:05.666Z,101485.94
2023-02-02T16:20:35.033Z,101485.53
2023-02-02T16:23:05.965Z,101487.72
2023-02-02T16:25:36.945Z,101486.69
2023-02-02T16:28:04.379Z,101484.34
2023-02-02T16:30:35.451Z,101486.84
2023-02-02T16:33:28.002Z,101487.66
2023-02-02T16:35:55.487Z,101481.81
2023-02-02T16:38:31.196Z,101485.28
2023-02-02T16:41:25.795Z,101497.66
2023-02-02T16:43:52.397Z,101494.94
2023-02-02T16:46:47.371Z,101507.84
2023-02-02T16:49:18.005Z,101496.81
2023-02-02T16:51:47.419Z,101502.88
2023-02-02T16:54:20.213Z,101514.44
2023-02-02T16:56:51.087Z,101519.41
2023-02-02T16:59:33.509Z,101516.88
2023-02-02T17:02:24.365Z,101525.03
2023-02-02T17:04:58.413Z,101517.31
2023-02-02T17:07:25.599Z,101516.63
2023-02-02T17:10:13.792Z,101513.34
2023-02-02T17:12:40.388Z,101518.53
2023-02-02T17:15:16.213Z,101521.31
2023-02-02T17:17:50.465Z,101526.00
2023-02-02T17:20:19.197Z,101526.59
2023-02-02T17:22:52.107Z,101530.06
2023-02-02T17:25:26.156Z,101533.97
2023-02-02T17:27:53.631Z,101526.69
2023-02-02T17:30:20.898Z,101538.03
2023-02-02T17:32:47.538Z,101529.22
2023-02-02T17:35:47.246Z,101541.63
2023-02-02T17:38:18.685Z,101539.88
2023-02-02T17:40:45.479Z,101544.56
2023-02-02T17:43:12.739Z,101539.41
2023-02-02T17:45:39.776Z,101539.44
2023-02-02T17:48:06.720Z,101534.91
2023-02-02T17:50:34.060Z,101541.09
2023-02-02T17:53:00.581Z,101542.84
2023-02-02T17:55:29.829Z,101535.56
2023-02-02T17:57:56.425Z,101541.72
2023-02-02T18:00:27.306Z,101537.38
2023-02-02T18:03:01.383Z,101537.38
2023-02-02T18:05:28.234Z,101540.44
2023-02-02T18:07:54.897Z,101545.56
2023-02-02T18:10:24.665Z,101543.88
2023-02-02T18:12:51.768Z,101541.78
2023-02-02T18:15:18.347Z,101545.16
2023-02-02T18:17:44.922Z,101536.63
2023-02-02T18:20:15.159Z,101546.38
2023-02-02T18:22:47.557Z,101541.59
2023-02-02T18:25:14.643Z,101543.78
2023-02-02T18:27:41.284Z,101540.78
2023-02-02T18:30:08.620Z,101545.56
2023-02-02T18:32:39.257Z,101532.34
2023-02-02T18:35:08.271Z,101537.91
2023-02-02T18:37:36.004Z,101544.56
2023-02-02T18:40:03.343Z,101541.09
2023-02-02T18:42:32.194Z,101539.22
2023-02-02T18:44:59.758Z,101536.03
2023-02-02T18:47:26.787Z,101538.34
2023-02-02T18:49:53.476Z,101525.13
2023-02-02T18:52:20.290Z,101528.09
2023-02-02T18:54:47.665Z,101531.72
2023-02-02T18:57:14.919Z,101520.97
2023-02-02T18:59:42.718Z,101523.56
2023-02-02T19:02:14.579Z,101523.31
2023-02-02T19:05:01.390Z,101521.63
2023-02-02T19:07:46.360Z,101526.31
2023-02-02T19:10:13.248Z,101526.50
2023-02-02T19:12:39.817Z,101537.22
2023-02-02T19:15:13.776Z,101530.88
2023-02-02T19:17:40.964Z,101538.06
2023-02-02T19:20:25.956Z,101544.88
2023-02-02T19:22:59.001Z,101540.94
2023-02-02T19:25:25.919Z,101549.41
2023-02-02T19:27:52.667Z,101547.25
2023-02-02T19:30:22.003Z,101542.09
2023-02-02T19:32:48.911Z,101542.56
2023-02-02T19:35:19.435Z,101549.78
2023-02-02T19:37:48.429Z,101548.63
2023-02-02T19:40:19.100Z,101543.44
2023-02-02T19:42:48.050Z,101548.44
2023-02-02T19:45:32.855Z,101544.91
2023-02-02T19:48:02.775Z,101549.88
2023-02-02T19:50:37.330Z,101550.03
2023-02-02T19:53:13.707Z,101543.84
2023-02-02T19:55:41.144Z,101530.09
2023-02-02T19:58:26.283Z,101546.75
2023-02-02T20:00:55.643Z,101543.28
2023-02-02T20:03:43.122Z,101538.59
2023-02-02T20:06:25.241Z,101538.53
2023-02-02T20:08:52.169Z,101524.75
2023-02-02T20:11:40.053Z,101531.53
2023-02-02T20:14:18.996Z,101526.09
2023-02-02T20:16:51.795Z,101533.97
2023-02-02T20:19:24.123Z,101533.81
2023-02-02T20:21:52.926Z,101520.28
2023-02-02T20:24:29.975Z,101527.75
2023-02-02T20:27:05.130Z,101529.81
2023-02-02T20:29:41.359Z,101531.16
2023-02-02T20:32:26.214Z,101539.06
2023-02-02T20:34:55.034Z,101534.88
2023-02-02T20:37:26.077Z,101536.59
2023-02-02T20:39:57.384Z,101533.56
2023-02-02T20:42:24.637Z,101535.72
2023-02-02T20:44:52.190Z,101531.84
2023-02-02T20:47:19.163Z,101537.53
2023-02-02T20:49:46.169Z,101521.38
2023-02-02T20:52:21.370Z,101517.66
2023-02-02T20:54:48.218Z,101530.00
2023-02-02T20:57:15.069Z,101533.38
2023-02-02T20:59:41.747Z,101537.75
2023-02-02T21:02:19.381Z,101538.94
2023-02-02T21:04:50.246Z,101542.63
2023-02-02T21:07:19.477Z,101544.41
2023-02-02T21:09:47.543Z,101539.50
2023-02-02T21:12:14.764Z,101542.44
2023-02-02T21:14:41.439Z,101555.44
2023-02-02T21:17:14.738Z,101562.66
2023-02-02T21:19:43.355Z,101559.72
2023-02-02T21:22:10.573Z,101568.22
2023-02-02T21:24:37.473Z,101567.75
2023-02-02T21:27:04.549Z,101569.84
2023-02-02T21:29:32.496Z,101577.44
2023-02-02T21:32:02.075Z,101566.16
2023-02-02T21:34:29.361Z,101571.25
2023-02-02T21:36:58.074Z,101578.50
2023-02-02T21:39:32.149Z,101563.78
2023-02-02T21:42:20.115Z,101570.41
2023-02-02T21:44:53.551Z,101562.13
2023-02-02T21:47:37.353Z,101564.53
2023-02-02T21:50:17.620Z,101558.78
2023-02-02T21:52:45.114Z,101548.78
2023-02-02T21:55:35.331Z,101538.75
2023-02-02T21:58:27.570Z,101533.16
2023-02-02T22:00:59.325Z,101539.41
2023-02-02T22:03:34.231Z,101547.06
2023-02-02T22:06:27.260Z,101542.28
2023-02-02T22:09:11.879Z,101548.47
2023-02-02T22:12:03.816Z,101541.72
2023-02-02T22:14:39.639Z,101538.09
2023-02-02T22:17:40.166Z,101541.31
2023-02-02T22:20:15.835Z,101539.41
2023-02-02T22:22:45.531Z,101536.69
2023-02-02T22:25:18.239Z,101542.88
2023-02-02T22:27:54.453Z,101555.09
2023-02-02T22:30:36.694Z,101555.41
2023-02-02T22:33:05.628Z,101541.19
2023-02-02T22:35:33.573Z,101542.50
2023-02-02T22:38:00.725Z,101541.41
2023-02-02T22:40:27.586Z,101553.19
2023-02-02T22:42:56.965Z,101534.78
2023-02-02T22:45:24.337Z,101528.03
2023-02-02T22:47:51.467Z,101544.19
2023-02-02T22:50:23.464Z,101542.41
2023-02-02T22:52:50.318Z,101541.31
2023-02-02T22:55:17.396Z,101541.94
2023-02-02T22:57:44.269Z,101533.88
2023-02-02T23:00:16.774Z,101539.03
2023-02-02T23:02:43.820Z,101527.19
2023-02-02T23:05:13.272Z,101520.13
2023-02-02T23:07:40.237Z,101524.84
2023-02-02T23:10:07.745Z,101535.53
2023-02-02T23:12:34.485Z,101527.72
2023-02-02T23:15:01.019Z,101526.94
2023-02-02T23:18:40.330Z,101518.09
2023-02-02T23:21:06.908Z,101528.63
2023-02-02T23:27:46.849Z,101524.41
2023-02-02T23:30:14.676Z,101526.69
2023-02-02T23:37:12.596Z,101501.97
2023-02-02T23:39:39.630Z,101510.91
2023-02-02T23:42:06.260Z,101499.91
2023-02-02T23:44:32.817Z,101493.72
2023-02-02T23:47:01.707Z,101496.84
2023-02-02T23:49:30.580Z,101473.00
2023-02-02T23:51:57.106Z,101460.16
2023-02-02T23:54:24.383Z,101456.28
2023-02-02T23:56:50.936Z,101471.56
2023-02-02T23:59:17.507Z,101444.88
